Time;durP1;ratioP1;P1;durP2;ratioP2;P2;SDS_P1;SDS_P2;PMS_P1;PMS_P2;Temp;Humidity;BMP_temperature;BMP_pressure;BME280_temperature;BME280_humidity;BME280_pressure;Samples;Min_cycle;Max_cycle;Signal;HPM_P1;HPM_P2
2021/09/23 00:00:58;;;;;;;7.93;7.13;;;;;20.70;101192.00;;;;2069723;28;20303;-55
2021/09/23 00:02:03;;;;;;;7.53;6.83;;;;;20.70;101188.00;;;;2071342;28;20257;-55
2021/09/23 00:03:20;;;;;;;7.85;7.05;;;;;20.70;101187.00;;;;2071274;28;20642;-55
2021/09/23 00:04:34;;;;;;;8.52;7.70;;;;;20.80;101189.00;;;;2071909;28;20214;-55
2021/09/23 00:05:35;;;;;;;7.40;6.60;;;;;20.80;101190.00;;;;2069392;28;20360;-56
2021/09/23 00:06:35;;;;;;;9.20;7.10;;;;;20.80;101198.00;;;;2066277;28;20238;-56
2021/09/23 00:07:35;;;;;;;8.70;7.80;;;;;20.70;101196.00;;;;2063572;28;20218;-56
2021/09/23 00:08:36;;;;;;;7.57;6.73;;;;;20.70;101198.00;;;;2063931;28;20840;-55
2021/09/23 00:09:36;;;;;;;7.63;6.73;;;;;20.80;101201.00;;;;2062239;28;20981;-55
2021/09/23 00:10:38;;;;;;;8.00;7.10;;;;;20.80;101198.00;;;;2071380;28;20209;-55
2021/09/23 00:11:38;;;;;;;7.70;6.90;;;;;20.70;101207.00;;;;2071664;28;20220;-55
2021/09/23 00:12:39;;;;;;;7.67;6.90;;;;;20.70;101196.00;;;;2072138;28;20213;-55
2021/09/23 00:13:39;;;;;;;9.10;7.03;;;;;20.70;101190.00;;;;2071815;28;20213;-55
2021/09/23 00:14:40;;;;;;;8.17;7.40;;;;;20.70;101196.00;;;;2072008;28;20225;-55
2021/09/23 00:15:40;;;;;;;8.37;6.90;;;;;20.70;101201.00;;;;2072025;28;20645;-55
2021/09/23 00:16:40;;;;;;;7.70;7.00;;;;;20.80;101189.00;;;;2071976;28;20214;-56
2021/09/23 00:17:51;;;;;;;7.97;7.17;;;;;20.70;101197.00;;;;2071471;28;20241;-55
2021/09/23 00:18:51;;;;;;;7.32;6.60;;;;;20.70;101188.00;;;;2069980;28;20203;-55
2021/09/23 00:19:52;;;;;;;7.60;6.83;;;;;20.70;101193.00;;;;2070662;28;20213;-55
2021/09/23 00:20:52;;;;;;;8.00;7.20;;;;;20.70;101191.00;;;;2071101;28;20221;-55
2021/09/23 00:21:52;;;;;;;8.00;7.20;;;;;20.70;101189.00;;;;2070153;28;20571;-55
2021/09/23 00:22:53;;;;;;;7.70;6.90;;;;;20.70;101186.00;;;;2070228;28;20202;-55
2021/09/23 00:23:54;;;;;;;6.87;6.17;;;;;20.80;101188.00;;;;2071680;28;20218;-55
2021/09/23 00:24:55;;;;;;;8.27;7.45;;;;;20.70;101175.00;;;;2071614;28;20236;-56
2021/09/23 00:25:55;;;;;;;7.50;6.70;;;;;20.70;101183.00;;;;2070467;28;20226;-55
2021/09/23 00:26:56;;;;;;;7.67;6.47;;;;;20.70;101181.00;;;;2063689;28;20215;-55
2021/09/23 00:27:56;;;;;;;8.13;7.33;;;;;20.70;101171.00;;;;2063764;28;20226;-55
2021/09/23 00:28:57;;;;;;;8.03;6.90;;;;;20.70;101180.00;;;;2062564;28;20221;-55
2021/09/23 00:29:57;;;;;;;7.90;7.13;;;;;20.70;101185.00;;;;2062920;28;20457;-55
2021/09/23 00:30:58;;;;;;;7.80;7.00;;;;;20.70;101179.00;;;;2063840;28;20223;-56
2021/09/23 00:31:58;;;;;;;7.57;6.97;;;;;20.70;101178.00;;;;2063293;28;20607;-55
2021/09/23 00:32:58;;;;;;;7.37;6.67;;;;;20.70;101169.00;;;;2063622;28;20214;-55
2021/09/23 00:33:59;;;;;;;7.40;6.70;;;;;20.70;101182.00;;;;2063250;28;20638;-55
2021/09/23 00:34:59;;;;;;;7.83;6.80;;;;;20.80;101173.00;;;;2062576;28;20222;-56
2021/09/23 00:36:00;;;;;;;7.20;5.97;;;;;20.70;101168.00;;;;2063686;28;20241;-55
2021/09/23 00:37:00;;;;;;;8.00;7.20;;;;;20.70;101166.00;;;;2064225;28;20302;-55
2021/09/23 00:38:00;;;;;;;7.20;6.50;;;;;20.70;101164.00;;;;2063188;28;20582;-55
2021/09/23 00:39:01;;;;;;;7.13;6.47;;;;;20.70;101158.00;;;;2061777;28;20215;-55
2021/09/23 00:40:04;;;;;;;10.00;7.50;;;;;20.70;101158.00;;;;2063049;28;20302;-55
2021/09/23 00:41:04;;;;;;;7.80;7.10;;;;;20.70;101153.00;;;;2064031;28;20215;-55
2021/09/23 00:42:05;;;;;;;6.60;6.00;;;;;20.70;101155.00;;;;2071227;28;20687;-55
2021/09/23 00:43:05;;;;;;;8.27;7.47;;;;;20.70;101151.00;;;;2070959;28;20225;-55
2021/09/23 00:44:16;;;;;;;8.03;7.30;;;;;20.70;101160.00;;;;2071017;28;20285;-55
2021/09/23 00:45:17;;;;;;;8.00;7.20;;;;;20.70;101156.00;;;;2070349;28;20682;-55
2021/09/23 00:46:18;;;;;;;7.70;6.60;;;;;20.70;101150.00;;;;2071327;28;20232;-55
2021/09/23 00:47:19;;;;;;;6.78;6.10;;;;;20.70;101153.00;;;;2071654;28;20329;-55
2021/09/23 00:48:19;;;;;;;7.90;7.10;;;;;20.70;101150.00;;;;2071853;28;20202;-55
2021/09/23 00:49:20;;;;;;;7.87;7.07;;;;;20.70;101140.00;;;;2071027;28;20206;-56
2021/09/23 00:50:20;;;;;;;8.03;7.23;;;;;20.70;101142.00;;;;2071908;28;20210;-56
2021/09/23 00:51:21;;;;;;;8.90;8.03;;;;;20.70;101135.00;;;;2071175;28;20222;-55
2021/09/23 00:52:25;;;;;;;12.00;7.50;;;;;20.70;101134.00;;;;2071222;28;20308;-55
2021/09/23 00:53:25;;;;;;;7.70;6.90;;;;;20.70;101127.00;;;;2071847;28;20211;-55
2021/09/23 00:54:26;;;;;;;8.67;7.87;;;;;20.70;101121.00;;;;2061019;28;20261;-55
2021/09/23 00:55:26;;;;;;;8.50;7.60;;;;;20.70;101130.00;;;;2062116;28;20215;-55
2021/09/23 00:56:27;;;;;;;8.63;7.77;;;;;20.70;101121.00;;;;2070266;28;20210;-55
2021/09/23 00:57:27;;;;;;;8.60;7.67;;;;;20.70;101124.00;;;;2071106;28;20250;-55
2021/09/23 00:58:27;;;;;;;7.73;6.93;;;;;20.70;101114.00;;;;2071815;28;20279;-55
2021/09/23 00:59:28;;;;;;;9.10;7.73;;;;;20.70;101111.00;;;;2061950;28;20325;-56
2021/09/23 01:00:28;;;;;;;7.53;6.83;;;;;20.70;101110.00;;;;2063062;28;20222;-55
2021/09/23 01:01:29;;;;;;;8.40;7.47;;;;;20.70;101110.00;;;;2070974;28;20469;-55
2021/09/23 01:02:29;;;;;;;8.27;7.47;;;;;20.70;101104.00;;;;2071804;28;20587;-55
2021/09/23 01:03:30;;;;;;;8.83;7.37;;;;;20.70;101106.00;;;;2071560;28;20372;-55
2021/09/23 01:04:30;;;;;;;7.83;7.10;;;;;20.70;101100.00;;;;2069015;28;20222;-55
2021/09/23 01:05:31;;;;;;;8.83;8.03;;;;;20.70;101105.00;;;;2056086;28;20231;-55
2021/09/23 01:06:31;;;;;;;7.77;7.07;;;;;20.70;101095.00;;;;2062603;28;20222;-55
2021/09/23 01:07:31;;;;;;;8.30;7.50;;;;;20.70;101099.00;;;;2063122;28;20301;-55
2021/09/23 01:08:32;;;;;;;8.50;7.70;;;;;20.70;101096.00;;;;2063485;28;20226;-55
2021/09/23 01:09:37;;;;;;;9.27;8.23;;;;;20.70;101093.00;;;;2062411;28;20284;-55
2021/09/23 01:10:37;;;;;;;8.95;8.05;;;;;20.70;101090.00;;;;2060372;28;20227;-55
2021/09/23 01:11:38;;;;;;;8.10;7.30;;;;;20.70;101094.00;;;;2063600;28;20219;-55
2021/09/23 01:12:38;;;;;;;8.60;7.70;;;;;20.70;101096.00;;;;2062784;28;20215;-55
2021/09/23 01:13:39;;;;;;;8.93;8.03;;;;;20.70;101104.00;;;;2063527;28;20219;-55
2021/09/23 01:14:39;;;;;;;8.67;7.87;;;;;20.70;101096.00;;;;2063517;28;20683;-55
2021/09/23 01:15:39;;;;;;;8.40;7.57;;;;;20.70;101107.00;;;;2063586;28;20587;-56
2021/09/23 01:16:40;;;;;;;9.37;8.50;;;;;20.70;101110.00;;;;2063188;28;20290;-56
2021/09/23 01:17:40;;;;;;;8.40;7.60;;;;;20.70;101102.00;;;;2063463;28;20215;-56
2021/09/23 01:18:41;;;;;;;11.17;8.63;;;;;20.70;101103.00;;;;2063311;28;20219;-55
2021/09/23 01:19:42;;;;;;;7.40;6.70;;;;;20.70;101090.00;;;;2063025;28;20214;-55
2021/09/23 01:20:43;;;;;;;9.18;8.38;;;;;20.70;101090.00;;;;2062871;28;20763;-55
2021/09/23 01:21:44;;;;;;;9.10;8.20;;;;;20.70;101092.00;;;;2062725;28;20206;-56
2021/09/23 01:22:44;;;;;;;8.73;7.83;;;;;20.70;101090.00;;;;2063384;28;20805;-55
2021/09/23 01:23:45;;;;;;;9.20;7.60;;;;;20.70;101089.00;;;;2063560;28;20219;-55
2021/09/23 01:24:45;;;;;;;9.90;8.90;;;;;20.70;101087.00;;;;2063634;28;20215;-56
2021/09/23 01:25:45;;;;;;;8.80;7.90;;;;;20.70;101090.00;;;;2067031;28;20218;-55
2021/09/23 01:26:49;;;;;;;8.17;7.37;;;;;20.70;101093.00;;;;2071548;28;20210;-55
2021/09/23 01:27:50;;;;;;;10.13;8.07;;;;;20.70;101087.00;;;;2070850;28;20206;-56
2021/09/23 01:28:50;;;;;;;9.47;8.27;;;;;20.70;101089.00;;;;2069933;28;20301;-55
2021/09/23 01:29:51;;;;;;;9.73;8.73;;;;;20.70;101091.00;;;;2071560;28;20218;-55
2021/09/23 01:30:51;;;;;;;9.13;7.57;;;;;20.80;101086.00;;;;2071012;28;20214;-56
2021/09/23 01:31:52;;;;;;;9.60;8.20;;;;;20.70;101082.00;;;;2071211;28;20206;-55
2021/09/23 01:32:52;;;;;;;8.90;8.00;;;;;20.70;101079.00;;;;2071591;28;20245;-55
2021/09/23 01:33:52;;;;;;;8.63;7.57;;;;;20.70;101080.00;;;;2071049;28;20264;-55
2021/09/23 01:34:53;;;;;;;8.23;7.43;;;;;20.70;101071.00;;;;2071550;28;20589;-55
2021/09/23 01:35:53;;;;;;;8.27;7.47;;;;;20.70;101063.00;;;;2067491;28;20262;-55
2021/09/23 01:36:54;;;;;;;8.67;7.87;;;;;20.70;101066.00;;;;2070320;28;20328;-55
2021/09/23 01:37:55;;;;;;;10.63;8.47;;;;;20.70;101068.00;;;;2065048;28;20323;-57
2021/09/23 01:38:55;;;;;;;9.23;8.33;;;;;20.70;101058.00;;;;2062067;28;20466;-55
2021/09/23 01:39:55;;;;;;;8.00;7.20;;;;;20.70;101072.00;;;;2063460;28;20215;-55
2021/09/23 01:40:56;;;;;;;8.00;7.30;;;;;20.70;101066.00;;;;2063441;28;20211;-55
2021/09/23 01:41:56;;;;;;;9.20;7.73;;;;;20.70;101065.00;;;;2067368;28;20700;-55
2021/09/23 01:42:57;;;;;;;7.77;7.00;;;;;20.70;101069.00;;;;2071439;28;20686;-55
2021/09/23 01:43:57;;;;;;;8.17;7.37;;;;;20.70;101067.00;;;;2071392;28;20325;-55
2021/09/23 01:44:57;;;;;;;8.17;7.37;;;;;20.70;101065.00;;;;2071427;28;20210;-55
2021/09/23 01:45:58;;;;;;;8.47;7.67;;;;;20.70;101064.00;;;;2070731;28;20222;-55
2021/09/23 01:46:58;;;;;;;8.13;7.17;;;;;20.70;101068.00;;;;2070269;28;21071;-55
2021/09/23 01:47:59;;;;;;;10.17;9.17;;;;;20.70;101074.00;;;;2071272;28;20619;-55
2021/09/23 01:48:59;;;;;;;8.03;7.23;;;;;20.70;101064.00;;;;2070603;28;20245;-55
2021/09/23 01:50:00;;;;;;;8.13;7.33;;;;;20.70;101073.00;;;;2071333;28;20769;-55
2021/09/23 01:51:00;;;;;;;8.93;8.03;;;;;20.70;101066.00;;;;2071430;28;20214;-54
2021/09/23 01:52:00;;;;;;;8.20;7.40;;;;;20.70;101070.00;;;;2069828;28;20214;-55
2021/09/23 01:53:01;;;;;;;8.10;7.30;;;;;20.70;101065.00;;;;2071279;28;20297;-55
2021/09/23 01:54:01;;;;;;;8.83;7.77;;;;;20.70;101065.00;;;;2070417;28;20217;-55
2021/09/23 01:55:03;;;;;;;8.57;7.67;;;;;20.70;101062.00;;;;2071227;28;20217;-55
2021/09/23 01:56:03;;;;;;;8.10;7.25;;;;;20.70;101056.00;;;;2071108;28;20222;-56
2021/09/23 01:57:03;;;;;;;7.77;7.03;;;;;20.70;101054.00;;;;2071223;28;20261;-55
2021/09/23 01:58:04;;;;;;;8.47;7.60;;;;;20.70;101058.00;;;;2071066;28;20721;-55
2021/09/23 01:59:04;;;;;;;8.63;7.73;;;;;20.70;101054.00;;;;2070192;28;20210;-55
2021/09/23 02:00:05;;;;;;;7.97;7.17;;;;;20.70;101052.00;;;;2063328;28;20211;-55
2021/09/23 02:01:06;;;;;;;8.23;7.43;;;;;20.70;101046.00;;;;2063145;28;20294;-55
2021/09/23 02:02:06;;;;;;;7.87;7.07;;;;;20.70;101041.00;;;;2062857;28;20884;-55
2021/09/23 02:03:06;;;;;;;8.37;7.47;;;;;20.70;101048.00;;;;2063420;28;20215;-55
2021/09/23 02:04:07;;;;;;;8.20;7.40;;;;;20.70;101041.00;;;;2065860;28;20710;-55
2021/09/23 02:05:08;;;;;;;9.10;8.03;;;;;20.70;101036.00;;;;2071274;28;20221;-55
2021/09/23 02:06:08;;;;;;;8.40;7.32;;;;;20.70;101038.00;;;;2068923;28;20233;-55
2021/09/23 02:07:09;;;;;;;7.90;7.07;;;;;20.70;101033.00;;;;2062816;28;20223;-55
2021/09/23 02:08:09;;;;;;;7.90;7.10;;;;;20.70;101041.00;;;;2063296;28;20358;-55
2021/09/23 02:09:09;;;;;;;8.27;7.47;;;;;20.70;101036.00;;;;2062258;28;20272;-55
2021/09/23 02:10:10;;;;;;;8.60;7.70;;;;;20.70;101030.00;;;;2063143;28;20245;-55
2021/09/23 02:11:11;;;;;;;8.53;7.70;;;;;20.70;101032.00;;;;2063295;28;20221;-55
2021/09/23 02:12:12;;;;;;;8.10;7.30;;;;;20.70;101026.00;;;;2063329;28;20222;-55
2021/09/23 02:13:12;;;;;;;8.13;7.33;;;;;20.70;101031.00;;;;2062767;28;20210;-55
2021/09/23 02:14:12;;;;;;;10.30;7.37;;;;;20.70;101017.00;;;;2062721;28;20210;-55
2021/09/23 02:15:13;;;;;;;8.13;7.33;;;;;20.70;101019.00;;;;2070879;28;20218;-55
2021/09/23 02:16:13;;;;;;;9.70;8.00;;;;;20.70;101017.00;;;;2070431;28;20226;-55
2021/09/23 02:17:13;;;;;;;7.40;6.43;;;;;20.70;101008.00;;;;2063231;28;20614;-55
2021/09/23 02:18:14;;;;;;;8.00;7.20;;;;;20.70;101004.00;;;;2063315;28;20234;-55
2021/09/23 02:19:14;;;;;;;9.77;7.47;;;;;20.70;101007.00;;;;2062135;28;20233;-55
2021/09/23 02:20:14;;;;;;;8.33;7.23;;;;;20.70;100999.00;;;;2063064;28;20323;-55
2021/09/23 02:21:15;;;;;;;7.40;6.70;;;;;20.70;101000.00;;;;2063021;28;20268;-55
2021/09/23 02:22:15;;;;;;;7.90;7.20;;;;;20.70;101002.00;;;;2062943;28;20976;-54
2021/09/23 02:23:16;;;;;;;7.60;6.90;;;;;20.70;101005.00;;;;2062127;28;20552;-55
2021/09/23 02:24:16;;;;;;;7.97;6.90;;;;;20.70;101004.00;;;;2063045;28;20856;-55
2021/09/23 02:25:17;;;;;;;8.97;7.30;;;;;20.70;101009.00;;;;2062511;28;20313;-55
2021/09/23 02:26:17;;;;;;;8.13;7.33;;;;;20.70;101012.00;;;;2063809;28;20238;-56
2021/09/23 02:27:18;;;;;;;7.77;7.07;;;;;20.70;101003.00;;;;2070855;28;20329;-55
2021/09/23 02:28:18;;;;;;;9.20;7.00;;;;;20.70;101005.00;;;;2071129;28;20249;-55
2021/09/23 02:29:19;;;;;;;8.50;7.60;;;;;20.70;101007.00;;;;2069797;28;20268;-55
2021/09/23 02:30:19;;;;;;;9.40;7.67;;;;;20.70;101016.00;;;;2067921;28;20234;-55
2021/09/23 02:31:19;;;;;;;8.07;7.23;;;;;20.70;101007.00;;;;2066662;28;20210;-55
2021/09/23 02:32:20;;;;;;;8.37;7.47;;;;;20.70;101010.00;;;;2061862;28;20222;-55
2021/09/23 02:33:20;;;;;;;8.00;7.13;;;;;20.70;101013.00;;;;2062786;28;20596;-55
2021/09/23 02:34:21;;;;;;;7.73;6.93;;;;;20.70;101015.00;;;;2062729;28;20261;-55
2021/09/23 02:35:21;;;;;;;7.83;6.93;;;;;20.70;101015.00;;;;2063863;28;20297;-55
2021/09/23 02:36:21;;;;;;;8.17;7.17;;;;;20.60;101010.00;;;;2066782;28;20206;-55
2021/09/23 02:37:25;;;;;;;7.50;6.80;;;;;20.70;101016.00;;;;2062227;28;20211;-55
2021/09/23 02:38:26;;;;;;;7.03;6.43;;;;;20.60;101023.00;;;;2062191;28;20862;-55
2021/09/23 02:39:26;;;;;;;8.23;7.40;;;;;20.60;101013.00;;;;2061710;28;20218;-55
2021/09/23 02:40:26;;;;;;;7.70;6.57;;;;;20.60;101024.00;;;;2062563;28;20785;-55
2021/09/23 02:41:30;;;;;;;6.70;6.10;;;;;20.70;101009.00;;;;2062872;28;20215;-55
2021/09/23 02:42:31;;;;;;;8.45;7.55;;;;;20.70;101005.00;;;;2062897;28;20203;-55
2021/09/23 02:43:31;;;;;;;8.38;6.97;;;;;20.60;101011.00;;;;2062035;28;20245;-55
2021/09/23 02:44:32;;;;;;;7.50;6.80;;;;;20.60;101008.00;;;;2059510;28;20223;-55
2021/09/23 02:45:32;;;;;;;8.50;6.90;;;;;20.70;101013.00;;;;2062650;28;20215;-55
2021/09/23 02:46:33;;;;;;;7.37;6.67;;;;;20.60;101012.00;;;;2062416;28;20211;-56
2021/09/23 02:47:33;;;;;;;7.93;7.13;;;;;20.70;101003.00;;;;2062914;28;20211;-56
2021/09/23 02:48:34;;;;;;;7.80;7.10;;;;;20.60;101005.00;;;;2070479;28;20599;-55
2021/09/23 02:49:34;;;;;;;8.10;7.00;;;;;20.70;101013.00;;;;2069437;28;21081;-55
2021/09/23 02:50:35;;;;;;;7.13;6.43;;;;;20.60;101002.00;;;;2070553;28;20207;-55
2021/09/23 02:51:35;;;;;;;7.80;7.10;;;;;20.70;101002.00;;;;2070748;28;20216;-55
2021/09/23 02:52:35;;;;;;;8.10;7.30;;;;;20.60;101006.00;;;;2064782;28;20552;-55
2021/09/23 02:53:36;;;;;;;7.00;6.40;;;;;20.60;100999.00;;;;2062654;28;20211;-55
2021/09/23 02:54:36;;;;;;;7.50;6.33;;;;;20.60;101004.00;;;;2062309;28;20215;-55
2021/09/23 02:55:37;;;;;;;9.00;6.70;;;;;20.60;101004.00;;;;2062411;28;20225;-55
2021/09/23 02:56:37;;;;;;;7.17;6.43;;;;;20.70;101002.00;;;;2070139;28;20206;-55
2021/09/23 02:57:38;;;;;;;8.07;7.27;;;;;20.60;100998.00;;;;2070171;28;20775;-55
2021/09/23 02:58:38;;;;;;;7.80;6.97;;;;;20.70;100991.00;;;;2070050;28;20252;-56
2021/09/23 02:59:38;;;;;;;7.13;6.43;;;;;20.70;101003.00;;;;2064731;28;20337;-55
2021/09/23 03:00:39;;;;;;;7.37;6.50;;;;;20.60;101002.00;;;;2061494;28;20265;-55
2021/09/23 03:01:39;;;;;;;6.70;6.00;;;;;20.70;100997.00;;;;2062854;28;20211;-56
2021/09/23 03:02:40;;;;;;;6.60;5.93;;;;;20.60;101004.00;;;;2069186;28;20217;-55
2021/09/23 03:03:40;;;;;;;7.67;6.80;;;;;20.60;101004.00;;;;2070840;28;20707;-55
2021/09/23 03:04:40;;;;;;;7.00;6.30;;;;;20.60;100992.00;;;;2070082;28;20671;-55
2021/09/23 03:05:42;;;;;;;6.33;5.73;;;;;20.60;101004.00;;;;2067589;28;20202;-55
2021/09/23 03:06:43;;;;;;;7.82;6.40;;;;;20.70;101009.00;;;;2058855;28;20206;-55
2021/09/23 03:07:43;;;;;;;7.70;6.33;;;;;20.60;100999.00;;;;2062452;28;20207;-55
2021/09/23 03:08:43;;;;;;;7.13;5.80;;;;;20.60;101011.00;;;;2063844;28;20207;-55
2021/09/23 03:09:44;;;;;;;7.10;6.40;;;;;20.60;101013.00;;;;2070569;28;20284;-55
2021/09/23 03:10:44;;;;;;;7.00;6.30;;;;;20.70;101008.00;;;;2070847;28;20233;-55
2021/09/23 03:11:44;;;;;;;7.10;6.50;;;;;20.70;101007.00;;;;2070666;28;20293;-55
2021/09/23 03:12:45;;;;;;;7.13;6.40;;;;;20.70;101012.00;;;;2070500;28;20213;-55
2021/09/23 03:13:46;;;;;;;7.00;6.30;;;;;20.60;101010.00;;;;2070652;28;20203;-55
2021/09/23 03:14:46;;;;;;;6.03;5.45;;;;;20.60;101005.00;;;;2061923;28;20325;-56
2021/09/23 03:15:47;;;;;;;7.37;6.07;;;;;20.60;101009.00;;;;2060931;28;20703;-55
2021/09/23 03:16:48;;;;;;;6.13;5.57;;;;;20.60;101017.00;;;;2062440;28;20294;-55
2021/09/23 03:17:48;;;;;;;6.37;5.77;;;;;20.60;101006.00;;;;2062618;28;20890;-55
2021/09/23 03:18:49;;;;;;;6.17;5.57;;;;;20.60;101005.00;;;;2061533;28;20587;-55
2021/09/23 03:19:49;;;;;;;6.83;6.20;;;;;20.60;101005.00;;;;2068105;28;20268;-55
2021/09/23 03:20:50;;;;;;;7.57;6.80;;;;;20.60;100998.00;;;;2068870;28;20222;-55
2021/09/23 03:21:50;;;;;;;6.17;5.57;;;;;20.60;100994.00;;;;2063258;28;20226;-54
2021/09/23 03:22:53;;;;;;;6.13;5.50;;;;;20.60;100990.00;;;;2061863;28;20338;-55
2021/09/23 03:23:53;;;;;;;6.68;5.82;;;;;20.60;100984.00;;;;2061946;28;20242;-55
2021/09/23 03:24:54;;;;;;;5.60;5.10;;;;;20.60;100979.00;;;;2062118;28;20226;-56
2021/09/23 03:25:54;;;;;;;6.10;5.50;;;;;20.60;100976.00;;;;2061394;28;20227;-55
2021/09/23 03:26:55;;;;;;;6.40;5.53;;;;;20.60;100972.00;;;;2064823;28;20717;-55
2021/09/23 03:27:55;;;;;;;6.27;5.67;;;;;20.60;100962.00;;;;2054707;28;20314;-56
2021/09/23 03:28:56;;;;;;;5.73;4.90;;;;;20.60;100956.00;;;;2052417;28;20215;-55
2021/09/23 03:29:56;;;;;;;5.87;5.37;;;;;20.60;100958.00;;;;2061804;28;20688;-55
2021/09/23 03:30:57;;;;;;;6.27;5.67;;;;;20.60;100952.00;;;;2065530;28;20226;-55
2021/09/23 03:31:58;;;;;;;6.47;5.88;;;;;20.60;100950.00;;;;2070099;28;20360;-55
2021/09/23 03:32:58;;;;;;;6.10;5.50;;;;;20.60;100944.00;;;;2069998;28;20218;-55
2021/09/23 03:33:58;;;;;;;5.87;5.37;;;;;20.60;100950.00;;;;2069987;28;20638;-55
2021/09/23 03:34:59;;;;;;;6.20;5.60;;;;;20.60;100947.00;;;;2067501;28;20583;-54
2021/09/23 03:35:59;;;;;;;7.23;5.77;;;;;20.60;100952.00;;;;2063733;28;20314;-55
2021/09/23 03:37:00;;;;;;;6.77;5.93;;;;;20.60;100952.00;;;;2066278;28;20214;-54
2021/09/23 03:38:00;;;;;;;6.33;5.73;;;;;20.60;100945.00;;;;2062394;28;20272;-55
2021/09/23 03:39:01;;;;;;;6.53;5.93;;;;;20.60;100943.00;;;;2060790;28;20318;-55
2021/09/23 03:40:03;;;;;;;6.00;5.10;;;;;20.50;100940.00;;;;2060890;28;20512;-55
2021/09/23 03:41:03;;;;;;;7.13;5.60;;;;;20.60;100939.00;;;;2061327;28;20219;-56
2021/09/23 03:42:04;;;;;;;5.90;5.30;;;;;20.60;100948.00;;;;2060324;28;20360;-56
2021/09/23 03:43:04;;;;;;;6.47;5.43;;;;;20.60;100950.00;;;;2067592;28;20210;-55
2021/09/23 03:44:05;;;;;;;6.50;5.90;;;;;20.60;100943.00;;;;2069982;28;20253;-55
2021/09/23 03:45:06;;;;;;;7.30;5.73;;;;;20.60;100947.00;;;;2062469;28;20829;-55
2021/09/23 03:46:06;;;;;;;5.77;5.27;;;;;20.60;100948.00;;;;2062503;28;20638;-55
2021/09/23 03:47:06;;;;;;;5.43;4.93;;;;;20.60;100939.00;;;;2066043;28;20797;-55
2021/09/23 03:48:07;;;;;;;6.40;5.77;;;;;20.60;100943.00;;;;2065644;28;20219;-55
2021/09/23 03:49:07;;;;;;;6.00;5.40;;;;;20.60;100940.00;;;;2065639;28;20218;-55
2021/09/23 03:50:08;;;;;;;6.27;5.40;;;;;20.60;100943.00;;;;2066054;28;20222;-55
2021/09/23 03:51:09;;;;;;;5.63;5.13;;;;;20.60;100944.00;;;;2068133;28;20214;-55
2021/09/23 03:52:09;;;;;;;6.70;6.10;;;;;20.60;100942.00;;;;2068358;28;20217;-55
2021/09/23 03:53:09;;;;;;;6.10;5.50;;;;;20.60;100942.00;;;;2063435;28;20851;-54
2021/09/23 03:54:10;;;;;;;6.27;5.67;;;;;20.60;100937.00;;;;2066163;28;20233;-55
2021/09/23 03:55:10;;;;;;;7.03;5.53;;;;;20.60;100943.00;;;;2065666;28;20217;-56
2021/09/23 03:56:13;;;;;;;7.23;6.40;;;;;20.60;100944.00;;;;2066027;28;20223;-55
2021/09/23 03:57:14;;;;;;;6.07;5.50;;;;;20.60;100949.00;;;;2066121;28;20214;-55
2021/09/23 03:58:14;;;;;;;6.00;5.40;;;;;20.60;100940.00;;;;2066160;28;20222;-55
2021/09/23 03:59:14;;;;;;;6.03;5.43;;;;;20.60;100953.00;;;;2065193;28;20215;-55
2021/09/23 04:00:17;;;;;;;6.20;5.30;;;;;20.60;100948.00;;;;2063260;28;20214;-56
2021/09/23 04:01:18;;;;;;;7.18;6.30;;;;;20.60;100944.00;;;;2068455;28;20275;-55
2021/09/23 04:02:18;;;;;;;5.80;5.30;;;;;20.60;100952.00;;;;2066312;28;20219;-56
2021/09/23 04:03:18;;;;;;;6.60;5.60;;;;;20.60;100951.00;;;;2062046;28;20814;-55
2021/09/23 04:04:19;;;;;;;6.63;6.03;;;;;20.60;100946.00;;;;2066178;28;20587;-55
2021/09/23 04:05:20;;;;;;;5.10;4.60;;;;;20.60;100934.00;;;;2062086;28;20648;-55
2021/09/23 04:06:20;;;;;;;6.37;5.77;;;;;20.60;100940.00;;;;2066771;28;20453;-55
2021/09/23 04:07:20;;;;;;;6.03;5.30;;;;;20.50;100941.00;;;;2064442;28;20207;-55
2021/09/23 04:08:20;;;;;;;6.23;5.63;;;;;20.50;100945.00;;;;2066015;28;20198;-55
2021/09/23 04:09:21;;;;;;;7.20;5.20;;;;;20.60;100949.00;;;;2065224;28;20215;-55
2021/09/23 04:10:22;;;;;;;5.20;4.70;;;;;20.60;100937.00;;;;2065576;28;20203;-55
2021/09/23 04:11:22;;;;;;;6.30;5.70;;;;;20.60;100936.00;;;;2066652;28;20217;-55
2021/09/23 04:12:23;;;;;;;5.60;5.10;;;;;20.60;100938.00;;;;2065805;28;20210;-55
2021/09/23 04:13:23;;;;;;;6.10;5.50;;;;;20.60;100937.00;;;;2066249;28;20213;-56
2021/09/23 04:14:23;;;;;;;5.53;4.90;;;;;20.60;100941.00;;;;2066577;28;20241;-55
2021/09/23 04:15:24;;;;;;;6.20;5.07;;;;;20.60;100942.00;;;;2067035;28;20683;-55
2021/09/23 04:16:24;;;;;;;5.80;5.30;;;;;20.60;100940.00;;;;2066427;28;20229;-55
2021/09/23 04:17:25;;;;;;;7.73;5.53;;;;;20.60;100934.00;;;;2065320;28;20309;-56
2021/09/23 04:18:25;;;;;;;5.70;5.20;;;;;20.60;100942.00;;;;2066690;28;20666;-55
2021/09/23 04:19:26;;;;;;;5.87;5.27;;;;;20.60;100937.00;;;;2065335;28;20218;-55
2021/09/23 04:20:26;;;;;;;6.17;5.57;;;;;20.60;100935.00;;;;2066445;28;20214;-55
2021/09/23 04:21:26;;;;;;;5.93;5.23;;;;;20.60;100937.00;;;;2066452;28;20296;-55
2021/09/23 04:22:27;;;;;;;5.43;4.90;;;;;20.60;100932.00;;;;2063533;28;20225;-55
2021/09/23 04:23:27;;;;;;;5.90;5.40;;;;;20.60;100926.00;;;;2069079;28;20210;-55
2021/09/23 04:24:27;;;;;;;6.47;5.43;;;;;20.60;100937.00;;;;2066052;28;20214;-55
2021/09/23 04:25:28;;;;;;;6.33;5.30;;;;;20.60;100930.00;;;;2064547;28;20277;-55
2021/09/23 04:26:29;;;;;;;5.80;5.30;;;;;20.60;100932.00;;;;2059511;28;20217;-55
2021/09/23 04:27:29;;;;;;;6.83;4.67;;;;;20.60;100924.00;;;;2062558;28;20223;-55
2021/09/23 04:28:30;;;;;;;5.60;5.10;;;;;20.60;100933.00;;;;2062486;28;20727;-55
2021/09/23 04:29:30;;;;;;;6.07;5.43;;;;;20.50;100928.00;;;;2060874;28;20294;-55
2021/09/23 04:30:30;;;;;;;5.70;5.20;;;;;20.60;100934.00;;;;2065806;28;20234;-55
2021/09/23 04:31:31;;;;;;;5.30;4.80;;;;;20.60;100940.00;;;;2069434;28;20236;-55
2021/09/23 04:32:31;;;;;;;5.70;5.10;;;;;20.60;100941.00;;;;2064212;28;20677;-56
2021/09/23 04:33:32;;;;;;;5.97;5.33;;;;;20.60;100920.00;;;;2070373;28;20257;-55
2021/09/23 04:34:32;;;;;;;5.70;5.20;;;;;20.60;100943.00;;;;2063967;28;20214;-56
2021/09/23 04:35:32;;;;;;;5.67;5.10;;;;;20.60;100938.00;;;;2055144;28;20210;-55
2021/09/23 04:36:33;;;;;;;6.57;5.00;;;;;20.60;100941.00;;;;2069724;28;20241;-55
2021/09/23 04:37:33;;;;;;;6.30;5.50;;;;;20.60;100944.00;;;;2063079;28;20282;-55
2021/09/23 04:38:33;;;;;;;5.47;4.90;;;;;20.60;100943.00;;;;2062563;28;20218;-55
2021/09/23 04:39:34;;;;;;;5.87;4.90;;;;;20.60;100949.00;;;;2064383;28;20568;-55
2021/09/23 04:40:34;;;;;;;5.33;4.70;;;;;20.60;100942.00;;;;2068827;28;20217;-55
2021/09/23 04:41:35;;;;;;;6.17;5.30;;;;;20.50;100937.00;;;;2061610;28;20257;-55
2021/09/23 04:42:35;;;;;;;5.77;5.27;;;;;20.50;100944.00;;;;2063393;28;20225;-55
2021/09/23 04:43:35;;;;;;;6.03;4.97;;;;;20.50;100938.00;;;;2063879;28;20215;-56
2021/09/23 04:44:36;;;;;;;8.83;5.33;;;;;20.50;100943.00;;;;2066440;28;20219;-55
2021/09/23 04:45:36;;;;;;;5.20;4.63;;;;;20.50;100946.00;;;;2062016;28;20222;-55
2021/09/23 04:46:36;;;;;;;6.13;5.53;;;;;20.60;100935.00;;;;2069503;28;20214;-55
2021/09/23 04:47:37;;;;;;;5.80;5.20;;;;;20.50;100939.00;;;;2065767;28;20649;-57
2021/09/23 04:48:37;;;;;;;5.67;4.77;;;;;20.50;100944.00;;;;2066714;28;20229;-55
2021/09/23 04:49:38;;;;;;;5.30;4.63;;;;;20.60;100943.00;;;;2064305;28;20306;-55
2021/09/23 04:50:39;;;;;;;5.50;4.57;;;;;20.60;100945.00;;;;2071813;28;20214;-55
2021/09/23 04:51:40;;;;;;;4.87;4.47;;;;;20.60;100949.00;;;;2067924;28;20218;-55
2021/09/23 04:52:40;;;;;;;4.53;4.13;;;;;20.60;100946.00;;;;2067744;28;20304;-55
2021/09/23 04:53:40;;;;;;;3.80;3.30;;;;;20.60;100953.00;;;;2067733;28;20628;-55
2021/09/23 04:54:41;;;;;;;5.20;4.40;;;;;20.60;100952.00;;;;2068062;28;20210;-55
2021/09/23 04:55:41;;;;;;;6.53;4.70;;;;;20.60;100948.00;;;;2063576;28;20253;-55
2021/09/23 04:56:42;;;;;;;7.63;4.47;;;;;20.60;100948.00;;;;2067465;28;20579;-56
2021/09/23 04:57:42;;;;;;;5.07;4.20;;;;;20.60;100949.00;;;;2063516;28;20298;-55
2021/09/23 04:58:43;;;;;;;5.57;4.40;;;;;20.70;100936.00;;;;2066749;28;20214;-55
2021/09/23 04:59:43;;;;;;;6.43;4.33;;;;;20.60;100949.00;;;;2065805;28;20214;-55
2021/09/23 05:00:43;;;;;;;6.77;4.53;;;;;20.60;100942.00;;;;2067961;28;20378;-55